sensor_id;sensor_type;location;lat;lon;timestamp;temperature;humidity
11136;DHT22;5622;50.840;4.948;2023-04-07T00:00:38;9.00;99.90
11136;DHT22;5622;50.840;4.948;2023-04-07T00:03:05;9.00;99.90
11136;DHT22;5622;50.840;4.948;2023-04-07T00:05:33;9.00;99.90
11136;DHT22;5622;50.840;4.948;2023-04-07T00:08:01;9.00;99.90
11136;DHT22;5622;50.840;4.948;2023-04-07T00:10:29;8.90;99.90
11136;DHT22;5622;50.840;4.948;2023-04-07T00:12:56;9.00;99.90
11136;DHT22;5622;50.840;4.948;2023-04-07T00:15:23;9.00;99.90
11136;DHT22;5622;50.840;4.948;2023-04-07T00:17:51;8.90;99.90
11136;DHT22;5622;50.840;4.948;2023-04-07T00:20:18;9.00;99.90
11136;DHT22;5622;50.840;4.948;2023-04-07T00:22:45;8.90;99.90
11136;DHT22;5622;50.840;4.948;2023-04-07T00:25:14;9.00;99.90
11136;DHT22;5622;50.840;4.948;2023-04-07T00:27:41;9.00;99.90
11136;DHT22;5622;50.840;4.948;2023-04-07T00:30:08;9.00;99.90
11136;DHT22;5622;50.840;4.948;2023-04-07T00:32:35;9.00;99.90
11136;DHT22;5622;50.840;4.948;2023-04-07T00:35:03;9.00;99.90
11136;DHT22;5622;50.840;4.948;2023-04-07T00:37:30;9.00;99.90
11136;DHT22;5622;50.840;4.948;2023-04-07T00:39:57;9.00;99.90
11136;DHT22;5622;50.840;4.948;2023-04-07T00:42:25;8.90;99.90
11136;DHT22;5622;50.840;4.948;2023-04-07T00:44:53;9.00;99.90
11136;DHT22;5622;50.840;4.948;2023-04-07T00:47:20;8.90;99.90
11136;DHT22;5622;50.840;4.948;2023-04-07T00:49:47;8.90;99.90
11136;DHT22;5622;50.840;4.948;2023-04-07T00:52:14;8.90;99.90
11136;DHT22;5622;50.840;4.948;2023-04-07T00:54:42;9.00;99.90
11136;DHT22;5622;50.840;4.948;2023-04-07T00:57:11;9.00;99.90
11136;DHT22;5622;50.840;4.948;2023-04-07T00:59:39;9.00;99.90
11136;DHT22;5622;50.840;4.948;2023-04-07T01:02:10;8.90;99.90
11136;DHT22;5622;50.840;4.948;2023-04-07T01:04:45;9.00;99.90
11136;DHT22;5622;50.840;4.948;2023-04-07T01:07:16;9.00;99.90
11136;DHT22;5622;50.840;4.948;2023-04-07T01:09:47;8.90;99.90
11136;DHT22;5622;50.840;4.948;2023-04-07T01:12:20;8.90;99.90
11136;DHT22;5622;50.840;4.948;2023-04-07T01:15:03;8.90;99.90
11136;DHT22;5622;50.840;4.948;2023-04-07T01:17:34;8.90;99.90
11136;DHT22;5622;50.840;4.948;2023-04-07T01:20:04;8.90;99.90
11136;DHT22;5622;50.840;4.948;2023-04-07T01:22:36;8.90;99.90
11136;DHT22;5622;50.840;4.948;2023-04-07T01:25:21;8.90;99.90
11136;DHT22;5622;50.840;4.948;2023-04-07T01:27:58;8.80;99.90
11136;DHT22;5622;50.840;4.948;2023-04-07T01:30:31;8.80;99.90
11136;DHT22;5622;50.840;4.948;2023-04-07T01:32:59;8.80;99.90
11136;DHT22;5622;50.840;4.948;2023-04-07T01:35:31;8.80;99.90
11136;DHT22;5622;50.840;4.948;2023-04-07T01:37:59;8.80;99.90
11136;DHT22;5622;50.840;4.948;2023-04-07T01:40:27;9.20;99.90
11136;DHT22;5622;50.840;4.948;2023-04-07T01:42:56;8.80;99.90
11136;DHT22;5622;50.840;4.948;2023-04-07T01:45:25;8.70;99.90
11136;DHT22;5622;50.840;4.948;2023-04-07T01:47:55;8.80;99.90
11136;DHT22;5622;50.840;4.948;2023-04-07T01:50:23;8.80;99.90
11136;DHT22;5622;50.840;4.948;2023-04-07T01:52:52;8.80;99.90
11136;DHT22;5622;50.840;4.948;2023-04-07T01:55:20;8.70;99.90
11136;DHT22;5622;50.840;4.948;2023-04-07T01:57:47;8.80;99.90
11136;DHT22;5622;50.840;4.948;2023-04-07T02:00:15;8.80;99.90
11136;DHT22;5622;50.840;4.948;2023-04-07T02:02:44;8.70;99.90
11136;DHT22;5622;50.840;4.948;2023-04-07T02:05:16;8.70;99.90
11136;DHT22;5622;50.840;4.948;2023-04-07T02:07:50;8.70;99.90
11136;DHT22;5622;50.840;4.948;2023-04-07T02:10:21;8.80;99.90
11136;DHT22;5622;50.840;4.948;2023-04-07T02:12:50;8.70;99.90
11136;DHT22;5622;50.840;4.948;2023-04-07T02:15:18;8.70;99.90
11136;DHT22;5622;50.840;4.948;2023-04-07T02:17:48;8.70;99.90
11136;DHT22;5622;50.840;4.948;2023-04-07T02:20:19;8.70;99.90
11136;DHT22;5622;50.840;4.948;2023-04-07T02:22:47;8.70;99.90
11136;DHT22;5622;50.840;4.948;2023-04-07T02:25:22;8.70;99.90
11136;DHT22;5622;50.840;4.948;2023-04-07T02:27:50;8.70;99.90
11136;DHT22;5622;50.840;4.948;2023-04-07T02:30:17;8.70;99.90
11136;DHT22;5622;50.840;4.948;2023-04-07T02:32:44;8.70;99.90
11136;DHT22;5622;50.840;4.948;2023-04-07T02:35:12;8.70;99.90
11136;DHT22;5622;50.840;4.948;2023-04-07T02:37:41;8.70;99.90
11136;DHT22;5622;50.840;4.948;2023-04-07T02:40:08;8.70;99.90
11136;DHT22;5622;50.840;4.948;2023-04-07T02:42:36;8.70;99.90
11136;DHT22;5622;50.840;4.948;2023-04-07T02:45:03;8.70;99.90
11136;DHT22;5622;50.840;4.948;2023-04-07T02:47:31;8.60;99.90
11136;DHT22;5622;50.840;4.948;2023-04-07T02:49:59;8.60;99.90
11136;DHT22;5622;50.840;4.948;2023-04-07T02:52:26;8.60;99.90
11136;DHT22;5622;50.840;4.948;2023-04-07T02:54:54;8.60;99.90
11136;DHT22;5622;50.840;4.948;2023-04-07T02:57:21;8.50;99.90
11136;DHT22;5622;50.840;4.948;2023-04-07T02:59:49;8.50;99.90
11136;DHT22;5622;50.840;4.948;2023-04-07T03:02:16;8.50;99.90
11136;DHT22;5622;50.840;4.948;2023-04-07T03:04:43;8.50;99.90
11136;DHT22;5622;50.840;4.948;2023-04-07T03:07:10;8.50;99.90
11136;DHT22;5622;50.840;4.948;2023-04-07T03:09:37;8.50;99.90
11136;DHT22;5622;50.840;4.948;2023-04-07T03:12:06;8.50;99.90
11136;DHT22;5622;50.840;4.948;2023-04-07T03:14:33;8.50;99.90
11136;DHT22;5622;50.840;4.948;2023-04-07T03:17:00;8.50;99.90
11136;DHT22;5622;50.840;4.948;2023-04-07T03:19:27;8.50;99.90
11136;DHT22;5622;50.840;4.948;2023-04-07T03:21:55;8.40;99.90
11136;DHT22;5622;50.840;4.948;2023-04-07T03:24:22;8.40;99.90
11136;DHT22;5622;50.840;4.948;2023-04-07T03:26:49;8.40;99.90
11136;DHT22;5622;50.840;4.948;2023-04-07T03:29:18;8.40;99.90
11136;DHT22;5622;50.840;4.948;2023-04-07T03:31:45;8.40;99.90
11136;DHT22;5622;50.840;4.948;2023-04-07T03:34:12;8.40;99.90
11136;DHT22;5622;50.840;4.948;2023-04-07T03:36:40;8.30;99.90
11136;DHT22;5622;50.840;4.948;2023-04-07T03:39:07;8.30;99.90
11136;DHT22;5622;50.840;4.948;2023-04-07T03:41:34;8.30;99.90
11136;DHT22;5622;50.840;4.948;2023-04-07T03:44:01;8.30;99.90
11136;DHT22;5622;50.840;4.948;2023-04-07T03:46:30;8.30;99.90
11136;DHT22;5622;50.840;4.948;2023-04-07T03:48:57;8.20;99.90
11136;DHT22;5622;50.840;4.948;2023-04-07T03:51:24;8.20;99.90
11136;DHT22;5622;50.840;4.948;2023-04-07T03:53:52;8.10;99.90
11136;DHT22;5622;50.840;4.948;2023-04-07T03:56:19;8.00;99.90
11136;DHT22;5622;50.840;4.948;2023-04-07T03:58:47;8.00;99.90
11136;DHT22;5622;50.840;4.948;2023-04-07T04:01:14;8.00;99.90
11136;DHT22;5622;50.840;4.948;2023-04-07T04:03:43;7.90;99.90
11136;DHT22;5622;50.840;4.948;2023-04-07T04:06:10;7.90;99.90
11136;DHT22;5622;50.840;4.948;2023-04-07T04:08:37;7.90;99.90
11136;DHT22;5622;50.840;4.948;2023-04-07T04:11:04;7.80;99.90
11136;DHT22;5622;50.840;4.948;2023-04-07T04:13:31;7.80;99.90
11136;DHT22;5622;50.840;4.948;2023-04-07T04:15:58;7.80;99.90
11136;DHT22;5622;50.840;4.948;2023-04-07T04:18:25;7.80;99.90
11136;DHT22;5622;50.840;4.948;2023-04-07T04:20:54;7.80;99.90
11136;DHT22;5622;50.840;4.948;2023-04-07T04:23:21;7.80;99.90
11136;DHT22;5622;50.840;4.948;2023-04-07T04:25:48;7.80;99.90
11136;DHT22;5622;50.840;4.948;2023-04-07T04:28:16;7.80;99.90
11136;DHT22;5622;50.840;4.948;2023-04-07T04:30:43;7.90;99.90
11136;DHT22;5622;50.840;4.948;2023-04-07T04:33:10;7.80;99.90
11136;DHT22;5622;50.840;4.948;2023-04-07T04:35:37;7.80;99.90
11136;DHT22;5622;50.840;4.948;2023-04-07T04:38:06;7.80;99.90
11136;DHT22;5622;50.840;4.948;2023-04-07T04:40:33;7.80;99.90
11136;DHT22;5622;50.840;4.948;2023-04-07T04:43:00;7.80;99.90
11136;DHT22;5622;50.840;4.948;2023-04-07T04:45:31;7.90;99.90
11136;DHT22;5622;50.840;4.948;2023-04-07T04:47:58;7.90;99.90
11136;DHT22;5622;50.840;4.948;2023-04-07T04:50:26;7.90;99.90
11136;DHT22;5622;50.840;4.948;2023-04-07T04:52:53;7.90;99.90
11136;DHT22;5622;50.840;4.948;2023-04-07T04:55:21;7.90;99.90
11136;DHT22;5622;50.840;4.948;2023-04-07T04:57:48;7.90;99.90
11136;DHT22;5622;50.840;4.948;2023-04-07T05:00:16;7.90;99.90
11136;DHT22;5622;50.840;4.948;2023-04-07T05:02:43;8.00;99.90
11136;DHT22;5622;50.840;4.948;2023-04-07T05:05:11;8.00;99.90
11136;DHT22;5622;50.840;4.948;2023-04-07T05:07:38;8.00;99.90
11136;DHT22;5622;50.840;4.948;2023-04-07T05:10:07;8.00;99.90
11136;DHT22;5622;50.840;4.948;2023-04-07T05:12:36;8.00;99.90
11136;DHT22;5622;50.840;4.948;2023-04-07T05:15:04;8.10;99.90
11136;DHT22;5622;50.840;4.948;2023-04-07T05:17:31;8.00;99.90
11136;DHT22;5622;50.840;4.948;2023-04-07T05:19:58;8.00;99.90
11136;DHT22;5622;50.840;4.948;2023-04-07T05:22:25;8.10;99.90
11136;DHT22;5622;50.840;4.948;2023-04-07T05:24:52;8.10;99.90
11136;DHT22;5622;50.840;4.948;2023-04-07T05:27:20;8.10;99.90
11136;DHT22;5622;50.840;4.948;2023-04-07T05:29:48;8.10;99.90
11136;DHT22;5622;50.840;4.948;2023-04-07T05:32:15;8.10;99.90
11136;DHT22;5622;50.840;4.948;2023-04-07T05:34:43;8.10;99.90
11136;DHT22;5622;50.840;4.948;2023-04-07T05:37:10;8.20;99.90
11136;DHT22;5622;50.840;4.948;2023-04-07T05:39:37;8.10;99.90
11136;DHT22;5622;50.840;4.948;2023-04-07T05:42:04;8.10;99.90
11136;DHT22;5622;50.840;4.948;2023-04-07T05:44:31;8.10;99.90
11136;DHT22;5622;50.840;4.948;2023-04-07T05:47:00;8.00;99.90
11136;DHT22;5622;50.840;4.948;2023-04-07T05:49:30;8.10;99.90
11136;DHT22;5622;50.840;4.948;2023-04-07T05:51:57;8.00;99.90
11136;DHT22;5622;50.840;4.948;2023-04-07T05:54:25;8.00;99.90
11136;DHT22;5622;50.840;4.948;2023-04-07T05:56:52;8.00;99.90
11136;DHT22;5622;50.840;4.948;2023-04-07T05:59:19;8.00;99.90
11136;DHT22;5622;50.840;4.948;2023-04-07T06:01:46;8.00;99.90
11136;DHT22;5622;50.840;4.948;2023-04-07T06:04:14;8.00;99.90
11136;DHT22;5622;50.840;4.948;2023-04-07T06:06:42;8.10;99.90
11136;DHT22;5622;50.840;4.948;2023-04-07T06:09:09;8.00;99.90
11136;DHT22;5622;50.840;4.948;2023-04-07T06:11:36;7.70;99.90
11136;DHT22;5622;50.840;4.948;2023-04-07T06:14:03;8.10;99.90
11136;DHT22;5622;50.840;4.948;2023-04-07T06:16:30;8.10;99.90
11136;DHT22;5622;50.840;4.948;2023-04-07T06:18:57;8.20;99.90
11136;DHT22;5622;50.840;4.948;2023-04-07T06:21:25;8.20;99.90
11136;DHT22;5622;50.840;4.948;2023-04-07T06:23:53;8.20;99.90
11136;DHT22;5622;50.840;4.948;2023-04-07T06:26:20;8.20;99.90
11136;DHT22;5622;50.840;4.948;2023-04-07T06:28:48;8.20;99.90
11136;DHT22;5622;50.840;4.948;2023-04-07T06:31:15;8.20;99.90
11136;DHT22;5622;50.840;4.948;2023-04-07T06:33:43;8.20;99.90
11136;DHT22;5622;50.840;4.948;2023-04-07T06:36:10;8.30;99.90
11136;DHT22;5622;50.840;4.948;2023-04-07T06:38:39;8.30;99.90
11136;DHT22;5622;50.840;4.948;2023-04-07T06:41:06;8.30;99.90
11136;DHT22;5622;50.840;4.948;2023-04-07T06:43:36;8.30;99.90
11136;DHT22;5622;50.840;4.948;2023-04-07T06:46:03;8.40;99.90
11136;DHT22;5622;50.840;4.948;2023-04-07T06:48:30;8.40;99.90
11136;DHT22;5622;50.840;4.948;2023-04-07T06:50:58;8.40;99.90
11136;DHT22;5622;50.840;4.948;2023-04-07T06:53:25;8.50;99.90
11136;DHT22;5622;50.840;4.948;2023-04-07T06:56:03;8.50;99.90
11136;DHT22;5622;50.840;4.948;2023-04-07T06:58:31;8.50;99.90
11136;DHT22;5622;50.840;4.948;2023-04-07T07:00:58;8.60;99.90
11136;DHT22;5622;50.840;4.948;2023-04-07T07:03:25;8.60;99.90
11136;DHT22;5622;50.840;4.948;2023-04-07T07:05:53;8.70;99.90
11136;DHT22;5622;50.840;4.948;2023-04-07T07:08:22;8.60;99.90
11136;DHT22;5622;50.840;4.948;2023-04-07T07:10:49;8.70;99.90
11136;DHT22;5622;50.840;4.948;2023-04-07T07:13:19;8.80;99.90
11136;DHT22;5622;50.840;4.948;2023-04-07T07:15:47;8.80;99.90
11136;DHT22;5622;50.840;4.948;2023-04-07T07:18:15;8.90;99.90
11136;DHT22;5622;50.840;4.948;2023-04-07T07:20:42;9.00;99.90
11136;DHT22;5622;50.840;4.948;2023-04-07T07:23:09;9.00;99.90
11136;DHT22;5622;50.840;4.948;2023-04-07T07:25:36;8.90;99.90
11136;DHT22;5622;50.840;4.948;2023-04-07T07:28:03;8.90;99.90
11136;DHT22;5622;50.840;4.948;2023-04-07T07:30:32;8.90;99.90
11136;DHT22;5622;50.840;4.948;2023-04-07T07:32:59;8.90;99.90
11136;DHT22;5622;50.840;4.948;2023-04-07T07:35:26;8.90;99.90
11136;DHT22;5622;50.840;4.948;2023-04-07T07:37:53;8.80;99.90
11136;DHT22;5622;50.840;4.948;2023-04-07T07:40:20;8.80;99.90
11136;DHT22;5622;50.840;4.948;2023-04-07T07:42:48;8.80;99.90
11136;DHT22;5622;50.840;4.948;2023-04-07T07:45:15;8.80;99.90
11136;DHT22;5622;50.840;4.948;2023-04-07T07:47:45;8.80;99.90
11136;DHT22;5622;50.840;4.948;2023-04-07T07:50:12;8.80;99.90
11136;DHT22;5622;50.840;4.948;2023-04-07T07:52:40;8.80;99.90
11136;DHT22;5622;50.840;4.948;2023-04-07T07:55:08;8.80;99.90
11136;DHT22;5622;50.840;4.948;2023-04-07T07:57:35;8.80;99.90
11136;DHT22;5622;50.840;4.948;2023-04-07T08:00:02;8.80;99.90
11136;DHT22;5622;50.840;4.948;2023-04-07T08:02:30;8.90;99.90
11136;DHT22;5622;50.840;4.948;2023-04-07T08:04:59;8.90;99.90
11136;DHT22;5622;50.840;4.948;2023-04-07T08:07:27;8.90;99.90
11136;DHT22;5622;50.840;4.948;2023-04-07T08:09:54;9.00;99.90
11136;DHT22;5622;50.840;4.948;2023-04-07T08:12:21;9.10;99.90
11136;DHT22;5622;50.840;4.948;2023-04-07T08:14:48;9.10;99.90
11136;DHT22;5622;50.840;4.948;2023-04-07T08:17:15;9.30;99.90
11136;DHT22;5622;50.840;4.948;2023-04-07T08:19:42;9.60;99.90
11136;DHT22;5622;50.840;4.948;2023-04-07T08:22:11;9.80;99.90
11136;DHT22;5622;50.840;4.948;2023-04-07T08:24:38;9.90;99.90
11136;DHT22;5622;50.840;4.948;2023-04-07T08:27:06;9.90;99.90
11136;DHT22;5622;50.840;4.948;2023-04-07T08:29:33;10.00;99.90
11136;DHT22;5622;50.840;4.948;2023-04-07T08:32:00;10.00;99.90
11136;DHT22;5622;50.840;4.948;2023-04-07T08:34:27;10.00;99.90
11136;DHT22;5622;50.840;4.948;2023-04-07T08:36:55;9.90;99.90
11136;DHT22;5622;50.840;4.948;2023-04-07T08:39:23;10.00;99.90
11136;DHT22;5622;50.840;4.948;2023-04-07T08:41:52;10.10;99.90
11136;DHT22;5622;50.840;4.948;2023-04-07T08:44:21;10.10;99.90
11136;DHT22;5622;50.840;4.948;2023-04-07T08:46:50;10.10;99.90
11136;DHT22;5622;50.840;4.948;2023-04-07T08:49:21;10.10;99.90
11136;DHT22;5622;50.840;4.948;2023-04-07T08:51:52;10.10;99.90
11136;DHT22;5622;50.840;4.948;2023-04-07T08:54:20;10.10;99.90
11136;DHT22;5622;50.840;4.948;2023-04-07T08:56:50;10.30;99.90
11136;DHT22;5622;50.840;4.948;2023-04-07T08:59:17;10.40;99.90
11136;DHT22;5622;50.840;4.948;2023-04-07T09:01:50;10.40;99.90
11136;DHT22;5622;50.840;4.948;2023-04-07T09:04:18;10.30;99.90
11136;DHT22;5622;50.840;4.948;2023-04-07T09:06:45;10.30;99.90
11136;DHT22;5622;50.840;4.948;2023-04-07T09:09:14;10.20;99.90
11136;DHT22;5622;50.840;4.948;2023-04-07T09:11:49;10.10;99.90
11136;DHT22;5622;50.840;4.948;2023-04-07T09:14:17;10.10;99.90
11136;DHT22;5622;50.840;4.948;2023-04-07T09:16:45;10.10;99.90
11136;DHT22;5622;50.840;4.948;2023-04-07T09:19:13;10.10;99.90
11136;DHT22;5622;50.840;4.948;2023-04-07T09:21:47;10.00;99.90
11136;DHT22;5622;50.840;4.948;2023-04-07T09:24:20;9.90;99.90
11136;DHT22;5622;50.840;4.948;2023-04-07T09:26:49;10.00;99.90
11136;DHT22;5622;50.840;4.948;2023-04-07T09:29:20;10.00;99.90
11136;DHT22;5622;50.840;4.948;2023-04-07T09:31:49;10.00;99.90
11136;DHT22;5622;50.840;4.948;2023-04-07T09:34:25;10.10;99.90
11136;DHT22;5622;50.840;4.948;2023-04-07T09:36:53;10.20;99.90
11136;DHT22;5622;50.840;4.948;2023-04-07T09:39:20;10.30;99.90
11136;DHT22;5622;50.840;4.948;2023-04-07T09:41:48;10.40;99.90
11136;DHT22;5622;50.840;4.948;2023-04-07T09:44:19;10.50;99.90
11136;DHT22;5622;50.840;4.948;2023-04-07T09:46:50;10.50;99.90
11136;DHT22;5622;50.840;4.948;2023-04-07T09:49:17;10.40;99.90
11136;DHT22;5622;50.840;4.948;2023-04-07T09:51:53;10.30;99.90
11136;DHT22;5622;50.840;4.948;2023-04-07T09:54:32;10.10;99.90
11136;DHT22;5622;50.840;4.948;2023-04-07T09:57:02;10.10;99.90
11136;DHT22;5622;50.840;4.948;2023-04-07T09:59:44;10.10;99.90
11136;DHT22;5622;50.840;4.948;2023-04-07T10:02:11;10.00;99.90
11136;DHT22;5622;50.840;4.948;2023-04-07T10:04:39;9.90;99.90
11136;DHT22;5622;50.840;4.948;2023-04-07T10:07:07;10.00;99.90
11136;DHT22;5622;50.840;4.948;2023-04-07T10:09:34;9.90;99.90
11136;DHT22;5622;50.840;4.948;2023-04-07T10:12:07;9.90;99.90
11136;DHT22;5622;50.840;4.948;2023-04-07T10:14:35;10.00;99.90
11136;DHT22;5622;50.840;4.948;2023-04-07T10:17:03;10.10;99.90
11136;DHT22;5622;50.840;4.948;2023-04-07T10:19:31;10.20;99.90
11136;DHT22;5622;50.840;4.948;2023-04-07T10:22:01;10.30;99.90
11136;DHT22;5622;50.840;4.948;2023-04-07T10:24:39;10.40;99.90
11136;DHT22;5622;50.840;4.948;2023-04-07T10:27:15;10.50;99.90
11136;DHT22;5622;50.840;4.948;2023-04-07T10:29:46;10.70;99.90
11136;DHT22;5622;50.840;4.948;2023-04-07T10:32:15;10.70;99.90
11136;DHT22;5622;50.840;4.948;2023-04-07T10:34:58;10.70;99.90
11136;DHT22;5622;50.840;4.948;2023-04-07T10:37:26;10.80;99.90
11136;DHT22;5622;50.840;4.948;2023-04-07T10:40:25;10.70;99.90
11136;DHT22;5622;50.840;4.948;2023-04-07T10:42:54;10.80;99.90
11136;DHT22;5622;50.840;4.948;2023-04-07T10:45:56;10.90;99.90
11136;DHT22;5622;50.840;4.948;2023-04-07T10:48:25;10.90;99.90
11136;DHT22;5622;50.840;4.948;2023-04-07T10:51:14;10.80;99.90
11136;DHT22;5622;50.840;4.948;2023-04-07T10:57:12;10.70;99.90
11136;DHT22;5622;50.840;4.948;2023-04-07T11:00:14;10.70;99.90
11136;DHT22;5622;50.840;4.948;2023-04-07T11:02:43;10.60;99.90
11136;DHT22;5622;50.840;4.948;2023-04-07T11:05:20;10.60;99.90
11136;DHT22;5622;50.840;4.948;2023-04-07T11:07:52;10.60;99.90
11136;DHT22;5622;50.840;4.948;2023-04-07T11:10:24;10.60;99.90
11136;DHT22;5622;50.840;4.948;2023-04-07T11:12:59;10.60;99.90
11136;DHT22;5622;50.840;4.948;2023-04-07T11:15:28;10.60;99.90
11136;DHT22;5622;50.840;4.948;2023-04-07T11:18:11;10.60;99.90
11136;DHT22;5622;50.840;4.948;2023-04-07T11:20:43;10.60;99.90
11136;DHT22;5622;50.840;4.948;2023-04-07T11:23:10;10.70;99.90
11136;DHT22;5622;50.840;4.948;2023-04-07T11:25:38;10.70;99.90
11136;DHT22;5622;50.840;4.948;2023-04-07T11:28:09;10.70;99.90
11136;DHT22;5622;50.840;4.948;2023-04-07T11:30:43;10.70;99.90
11136;DHT22;5622;50.840;4.948;2023-04-07T11:33:14;10.60;99.90
11136;DHT22;5622;50.840;4.948;2023-04-07T11:35:47;10.60;99.90
11136;DHT22;5622;50.840;4.948;2023-04-07T11:38:14;10.60;99.90
11136;DHT22;5622;50.840;4.948;2023-04-07T11:40:42;10.50;99.90
11136;DHT22;5622;50.840;4.948;2023-04-07T11:43:16;10.50;99.90
11136;DHT22;5622;50.840;4.948;2023-04-07T11:46:04;10.50;99.90
11136;DHT22;5622;50.840;4.948;2023-04-07T11:48:33;10.40;99.90
11136;DHT22;5622;50.840;4.948;2023-04-07T11:51:00;10.40;99.90
11136;DHT22;5622;50.840;4.948;2023-04-07T11:53:28;10.40;99.90
11136;DHT22;5622;50.840;4.948;2023-04-07T11:56:03;10.40;99.90
11136;DHT22;5622;50.840;4.948;2023-04-07T11:58:32;10.40;99.90
11136;DHT22;5622;50.840;4.948;2023-04-07T12:01:01;10.40;99.90
11136;DHT22;5622;50.840;4.948;2023-04-07T12:03:33;10.50;99.90
11136;DHT22;5622;50.840;4.948;2023-04-07T12:06:01;10.60;99.90
11136;DHT22;5622;50.840;4.948;2023-04-07T12:08:42;10.70;99.90
11136;DHT22;5622;50.840;4.948;2023-04-07T12:11:09;10.80;99.90
11136;DHT22;5622;50.840;4.948;2023-04-07T12:13:36;10.90;99.90
11136;DHT22;5622;50.840;4.948;2023-04-07T12:16:04;10.80;99.90
11136;DHT22;5622;50.840;4.948;2023-04-07T12:18:33;10.90;99.90
11136;DHT22;5622;50.840;4.948;2023-04-07T12:21:00;10.90;99.90
11136;DHT22;5622;50.840;4.948;2023-04-07T12:23:27;10.90;99.90
11136;DHT22;5622;50.840;4.948;2023-04-07T12:25:54;10.80;99.90
11136;DHT22;5622;50.840;4.948;2023-04-07T12:28:21;10.80;99.90
11136;DHT22;5622;50.840;4.948;2023-04-07T12:30:48;10.80;99.90
11136;DHT22;5622;50.840;4.948;2023-04-07T12:33:15;10.80;99.90
11136;DHT22;5622;50.840;4.948;2023-04-07T12:35:44;10.70;99.90
11136;DHT22;5622;50.840;4.948;2023-04-07T12:38:11;10.70;99.90
11136;DHT22;5622;50.840;4.948;2023-04-07T12:40:38;10.70;99.90
11136;DHT22;5622;50.840;4.948;2023-04-07T12:43:05;10.60;99.90
11136;DHT22;5622;50.840;4.948;2023-04-07T12:45:33;10.60;99.90
11136;DHT22;5622;50.840;4.948;2023-04-07T12:48:00;10.60;99.90
11136;DHT22;5622;50.840;4.948;2023-04-07T12:50:28;10.60;99.90
11136;DHT22;5622;50.840;4.948;2023-04-07T12:52:57;10.50;99.90
11136;DHT22;5622;50.840;4.948;2023-04-07T12:55:28;10.60;99.90
11136;DHT22;5622;50.840;4.948;2023-04-07T12:57:55;10.60;99.90
11136;DHT22;5622;50.840;4.948;2023-04-07T13:00:22;10.60;99.90
11136;DHT22;5622;50.840;4.948;2023-04-07T13:02:50;10.60;99.90
11136;DHT22;5622;50.840;4.948;2023-04-07T13:05:17;10.50;99.90
11136;DHT22;5622;50.840;4.948;2023-04-07T13:07:44;10.50;99.90
11136;DHT22;5622;50.840;4.948;2023-04-07T13:10:13;10.50;99.90
11136;DHT22;5622;50.840;4.948;2023-04-07T13:12:40;10.50;99.90
11136;DHT22;5622;50.840;4.948;2023-04-07T13:15:07;10.60;99.90
11136;DHT22;5622;50.840;4.948;2023-04-07T13:17:35;10.60;99.90
11136;DHT22;5622;50.840;4.948;2023-04-07T13:20:03;10.50;99.90
11136;DHT22;5622;50.840;4.948;2023-04-07T13:22:31;10.60;99.90
11136;DHT22;5622;50.840;4.948;2023-04-07T13:24:58;10.60;99.90
11136;DHT22;5622;50.840;4.948;2023-04-07T13:27:27;10.60;99.90
11136;DHT22;5622;50.840;4.948;2023-04-07T13:29:54;10.60;99.90
11136;DHT22;5622;50.840;4.948;2023-04-07T13:32:21;10.70;99.90
11136;DHT22;5622;50.840;4.948;2023-04-07T13:34:49;10.70;99.90
11136;DHT22;5622;50.840;4.948;2023-04-07T13:37:17;10.90;99.90
11136;DHT22;5622;50.840;4.948;2023-04-07T13:39:45;10.80;99.90
11136;DHT22;5622;50.840;4.948;2023-04-07T13:42:13;10.80;99.90
11136;DHT22;5622;50.840;4.948;2023-04-07T13:44:43;10.90;99.90
11136;DHT22;5622;50.840;4.948;2023-04-07T13:47:12;10.90;99.90
11136;DHT22;5622;50.840;4.948;2023-04-07T13:49:44;10.90;99.90
11136;DHT22;5622;50.840;4.948;2023-04-07T13:52:11;11.00;99.90
11136;DHT22;5622;50.840;4.948;2023-04-07T13:54:39;11.00;99.90
11136;DHT22;5622;50.840;4.948;2023-04-07T13:57:06;11.00;99.90
11136;DHT22;5622;50.840;4.948;2023-04-07T13:59:33;11.10;99.90
11136;DHT22;5622;50.840;4.948;2023-04-07T14:02:02;11.10;99.90
11136;DHT22;5622;50.840;4.948;2023-04-07T14:04:29;11.00;99.90
11136;DHT22;5622;50.840;4.948;2023-04-07T14:06:56;11.10;99.90
11136;DHT22;5622;50.840;4.948;2023-04-07T14:09:23;11.10;99.90
11136;DHT22;5622;50.840;4.948;2023-04-07T14:11:50;11.10;99.90
11136;DHT22;5622;50.840;4.948;2023-04-07T14:14:17;11.10;99.90
11136;DHT22;5622;50.840;4.948;2023-04-07T14:16:44;11.10;99.90
11136;DHT22;5622;50.840;4.948;2023-04-07T14:19:13;11.10;99.90
11136;DHT22;5622;50.840;4.948;2023-04-07T14:21:40;11.10;99.90
11136;DHT22;5622;50.840;4.948;2023-04-07T14:24:07;11.10;99.90
11136;DHT22;5622;50.840;4.948;2023-04-07T14:26:34;11.10;99.90
11136;DHT22;5622;50.840;4.948;2023-04-07T14:29:01;11.10;99.90
11136;DHT22;5622;50.840;4.948;2023-04-07T14:31:29;11.10;99.90
11136;DHT22;5622;50.840;4.948;2023-04-07T14:34:00;11.10;99.90
11136;DHT22;5622;50.840;4.948;2023-04-07T14:36:29;11.00;99.90
11136;DHT22;5622;50.840;4.948;2023-04-07T14:38:56;11.00;99.90
11136;DHT22;5622;50.840;4.948;2023-04-07T14:41:23;10.90;99.90
11136;DHT22;5622;50.840;4.948;2023-04-07T14:43:50;10.90;99.90
11136;DHT22;5622;50.840;4.948;2023-04-07T14:46:20;10.90;99.90
11136;DHT22;5622;50.840;4.948;2023-04-07T14:48:48;10.80;99.90
11136;DHT22;5622;50.840;4.948;2023-04-07T14:51:15;10.80;99.90
11136;DHT22;5622;50.840;4.948;2023-04-07T14:53:44;10.80;99.90
11136;DHT22;5622;50.840;4.948;2023-04-07T14:56:11;10.80;99.90
11136;DHT22;5622;50.840;4.948;2023-04-07T14:58:38;10.80;99.90
11136;DHT22;5622;50.840;4.948;2023-04-07T15:01:06;10.80;99.90
11136;DHT22;5622;50.840;4.948;2023-04-07T15:03:33;10.70;99.90
11136;DHT22;5622;50.840;4.948;2023-04-07T15:06:05;10.80;99.90
11136;DHT22;5622;50.840;4.948;2023-04-07T15:08:32;10.80;99.90
11136;DHT22;5622;50.840;4.948;2023-04-07T15:11:03;10.80;99.90
11136;DHT22;5622;50.840;4.948;2023-04-07T15:13:30;10.80;99.90
11136;DHT22;5622;50.840;4.948;2023-04-07T15:16:05;10.90;99.90
11136;DHT22;5622;50.840;4.948;2023-04-07T15:18:32;11.00;99.90
11136;DHT22;5622;50.840;4.948;2023-04-07T15:20:59;11.00;99.90
11136;DHT22;5622;50.840;4.948;2023-04-07T15:23:26;11.10;99.90
11136;DHT22;5622;50.840;4.948;2023-04-07T15:25:53;11.00;99.90
11136;DHT22;5622;50.840;4.948;2023-04-07T15:28:24;11.10;99.90
11136;DHT22;5622;50.840;4.948;2023-04-07T15:30:51;11.10;99.90
11136;DHT22;5622;50.840;4.948;2023-04-07T15:33:20;11.10;99.90
11136;DHT22;5622;50.840;4.948;2023-04-07T15:35:47;11.00;99.90
11136;DHT22;5622;50.840;4.948;2023-04-07T15:38:14;11.00;99.90
11136;DHT22;5622;50.840;4.948;2023-04-07T15:40:41;11.00;99.90
11136;DHT22;5622;50.840;4.948;2023-04-07T15:43:08;11.10;99.90
11136;DHT22;5622;50.840;4.948;2023-04-07T15:45:41;11.00;99.90
11136;DHT22;5622;50.840;4.948;2023-04-07T15:48:08;11.00;99.90
11136;DHT22;5622;50.840;4.948;2023-04-07T15:50:35;11.00;99.90
11136;DHT22;5622;50.840;4.948;2023-04-07T15:53:03;11.00;99.90
11136;DHT22;5622;50.840;4.948;2023-04-07T15:55:30;10.90;99.90
11136;DHT22;5622;50.840;4.948;2023-04-07T15:57:58;10.90;99.90
11136;DHT22;5622;50.840;4.948;2023-04-07T16:00:25;10.90;99.90
11136;DHT22;5622;50.840;4.948;2023-04-07T16:02:54;10.90;99.90
11136;DHT22;5622;50.840;4.948;2023-04-07T16:05:21;10.80;99.90
11136;DHT22;5622;50.840;4.948;2023-04-07T16:07:48;10.80;99.90